Flight Track Log - Related Links

Times and Time Zones

All times are in EDT time to prevent confusion due to time zone crossing. See the DAL3926 flight status page for this flight to view local times or setup timezone preferences in your user account.

Time Position Orientation Groundspeed Altitude Reporting Facility
EDT Latitude Longitude Course Direction KTS MPH feet Rate Location/Type
Wed 12:29:47 PM 44.8744 -93.1758 45° Northeast 147 169 2,400  Level FAA TRACON SMA TRACON (SMA)
Wed 12:30:07 PM 44.8714 -93.1575 103° East 152 175 3,000 1,902 Climbing FAA TRACON SMA TRACON (SMA)
Wed 12:30:28 PM 44.8681 -93.1361 102° East 171 197 3,700 2,300 Climbing FAA TRACON SMA TRACON (SMA)
Wed 12:31:07 PM 44.8628 -93.0806 98° East 219 252 5,300 2,500 Climbing FAA TRACON SMA TRACON (SMA)
Wed 12:31:28 PM 44.8722 -93.0536 64° Northeast 249 287 6,200 3,512 Climbing FAA TRACON SMA TRACON (SMA)
Wed 12:31:48 PM 44.8964 -93.0353 28° Northeast 266 306 7,700 3,300 Climbing FAA TRACON SMA TRACON (SMA)
Wed 12:32:08 PM 44.9197 -93.0294 10° North 273 314 8,400 2,154 Climbing FAA TRACON SMA TRACON (SMA)
Wed 12:32:27 PM 44.9444 -93.0247 North 286 329 9,100 2,250 Climbing FAA TRACON SMA TRACON (SMA)
Wed 12:32:48 PM 44.9778 -93.0178 North 309 356 9,900 1,756 Climbing FAA TRACON SMA TRACON (SMA)
Wed 12:33:08 PM 45.0047 -93.0119 North 320 368 10,300 1,200 Climbing FAA TRACON SMA TRACON (SMA)
Wed 12:33:28 PM 45.0419 -93.0031 10° North 345 397 10,700 1,800 Climbing FAA TRACON SMA TRACON (SMA)
Wed 12:33:48 PM 45.0722 -92.9953 10° North 359 413 11,500 2,100 Climbing FAA TRACON SMA TRACON (SMA)
Wed 12:34:00 PM 45.2552 -93.1950 45° Northeast  Level FlightAware Approximate
Wed 12:34:08 PM 45.1028 -92.9861 12° North 365 420 12,100  Level FAA TRACON SMA TRACON (SMA)
Wed 12:34:28 PM 45.1342 -92.9772 11° North 371 427 12,700 1,171 Climbing FAA TRACON SMA TRACON (SMA)
Wed 12:34:49 PM 45.1736 -92.9647 13° North 376 433 12,900 293 Climbing FAA TRACON SMA TRACON (SMA)
Wed 12:35:09 PM 45.2053 -92.9547 13° North 379 436 12,900  Level FAA TRACON SMA TRACON (SMA)
Wed 12:35:29 PM 45.2456 -92.9422 12° North 384 442 12,900  Level FAA TRACON SMA TRACON (SMA)
Wed 12:35:49 PM 45.2772 -92.9289 17° North 384 442 12,900  Level FAA TRACON SMA TRACON (SMA)
Wed 12:36:09 PM 45.3089 -92.9158 16° North 385 443 12,900  Level FAA TRACON SMA TRACON (SMA)
Wed 12:36:28 PM 45.3400 -92.9011 18° North 383 441 12,900  Level FAA TRACON SMA TRACON (SMA)
Wed 12:36:48 PM 45.3792 -92.8839 17° North 385 443 12,900  Level FAA TRACON SMA TRACON (SMA)
Wed 12:37:08 PM 45.4106 -92.8689 19° North 384 442 12,900  Level FAA TRACON SMA TRACON (SMA)
Wed 12:37:28 PM 45.4419 -92.8544 18° North 384 442 12,900  Level FAA TRACON SMA TRACON (SMA)
Wed 12:37:48 PM 45.4808 -92.8369 18° North 383 441 12,900  Level FAA TRACON SMA TRACON (SMA)
Wed 12:38:08 PM 45.5117 -92.8231 18° North 378 435 12,900  Level FAA TRACON SMA TRACON (SMA)
Wed 12:38:28 PM 45.5489 -92.8069 17° North 366 421 12,900  Level FAA TRACON SMA TRACON (SMA)
Wed 12:38:48 PM 45.5781 -92.7936 18° North 359 413 12,900  Level FAA TRACON SMA TRACON (SMA)
Wed 12:39:08 PM 45.6069 -92.7808 17° North 351 404 12,900  Level FAA TRACON SMA TRACON (SMA)
Wed 12:39:28 PM 45.6431 -92.7636 18° North 357 411 12,900 -146 Level FAA TRACON SMA TRACON (SMA)
Wed 12:39:49 PM 45.6731 -92.7511 16° North 361 415 12,800 -146 Descending FAA TRACON SMA TRACON (SMA)
Wed 12:40:09 PM 45.7028 -92.7369 18° North 365 420 12,800 150 Level FAA TRACON SMA TRACON (SMA)
Wed 12:40:29 PM 45.7406 -92.7203 17° North 369 425 12,900  Climbing FAA TRACON SMA TRACON (SMA)
Wed 12:40:49 PM 45.7711 -92.7064 18° North 371 427 12,800 -150 Descending FAA TRACON SMA TRACON (SMA)
Wed 12:41:09 PM 45.8011 -92.6931 17° North 371 427 12,800 62 Level FAA TRACON SMA TRACON (SMA)
Wed 12:42:26 PM 45.9108 -92.6389 19° North 362 417 12,900 86 Climbing Minneapolis Center
Wed 12:43:28 PM 46.0050 -92.5922 19° North 359 413 13,000 49 Climbing Minneapolis Center
Wed 12:44:29 PM 46.1206 -92.5375 18° North 364 419 13,000  Level Minneapolis Center
Wed 12:45:31 PM 46.2203 -92.4922 17° North 367 422 13,000 -146 Level Minneapolis Center
Wed 12:46:32 PM 46.3194 -92.4636 11° North 364 419 12,700 -1,122 Descending Minneapolis Center
Wed 12:47:34 PM 46.4097 -92.4619 North 333 383 10,700 -1,854 Descending Minneapolis Center
Wed 12:48:35 PM 46.4994 -92.4653 359° North 324 373 8,900 -1,756 Descending Minneapolis Center
Wed 12:49:37 PM 46.5767 -92.4706 357° North 292 336 7,100 -1,610 Descending Minneapolis Center
Wed 12:50:38 PM 46.6511 -92.4731 359° North 279 321 5,600 -1,366 Descending Minneapolis Center
Wed 12:51:40 PM 46.7200 -92.4781 357° North 265 305 4,300 -1,122 Descending Minneapolis Center
Wed 12:52:41 PM 46.7900 -92.4878 355° North 258 297 3,300 -488 Descending Minneapolis Center
Wed 12:53:43 PM 46.8544 -92.4458 24° Northeast 245 282 3,300  Level Minneapolis Center
Wed 12:54:56 PM 46.8464 -92.3817 100° East 190 219 3,300 -178 Level Minneapolis Center
Wed 12:55:58 PM 46.8436 -92.3092 93° East 162 186 2,900 -387 Descending Minneapolis Center

Login

Don't have an account? Register now (free) for customized features, flight alerts, and more!